createdAt,value
2023-05-09T00:01:59.416Z,2.60
2023-05-09T00:04:02.819Z,2.10
2023-05-09T00:06:07.478Z,2.40
2023-05-09T00:08:10.257Z,2.20
2023-05-09T00:10:13.015Z,2.13
2023-05-09T00:12:15.769Z,2.47
2023-05-09T00:14:18.715Z,2.20
2023-05-09T00:16:23.964Z,2.50
2023-05-09T00:18:28.316Z,2.47
2023-05-09T00:20:33.912Z,2.70
2023-05-09T00:22:38.054Z,3.07
2023-05-09T00:24:40.775Z,2.40
2023-05-09T00:26:43.955Z,2.40
2023-05-09T00:28:46.712Z,2.50
2023-05-09T00:30:49.479Z,2.47
2023-05-09T00:32:52.271Z,2.43
2023-05-09T00:34:55.434Z,2.57
2023-05-09T00:36:58.186Z,3.10
2023-05-09T00:39:02.364Z,2.90
2023-05-09T00:41:05.307Z,2.80
2023-05-09T00:43:08.463Z,2.40
2023-05-09T00:45:12.098Z,2.73
2023-05-09T00:47:15.056Z,2.87
2023-05-09T00:49:17.788Z,2.57
2023-05-09T00:51:20.994Z,2.33
2023-05-09T00:53:23.754Z,2.77
2023-05-09T00:55:28.013Z,2.70
2023-05-09T00:57:30.843Z,2.83
2023-05-09T00:59:34.049Z,2.60
2023-05-09T01:01:37.313Z,3.00
2023-05-09T01:03:41.333Z,2.87
2023-05-09T01:05:48.930Z,2.40
2023-05-09T01:07:56.983Z,2.90
2023-05-09T01:10:02.823Z,2.77
2023-05-09T01:12:12.892Z,2.30
2023-05-09T01:14:19.921Z,2.80
2023-05-09T01:16:27.686Z,2.80
2023-05-09T01:18:32.625Z,2.67
2023-05-09T01:20:39.119Z,2.57
2023-05-09T01:22:46.115Z,2.43
2023-05-09T01:25:02.568Z,2.60
2023-05-09T01:27:23.391Z,2.43
2023-05-09T01:29:35.844Z,2.40
2023-05-09T01:31:39.469Z,3.20
2023-05-09T01:33:42.728Z,2.97
2023-05-09T01:35:46.156Z,2.23
2023-05-09T01:37:50.237Z,2.70
2023-05-09T01:39:54.456Z,3.00
2023-05-09T01:41:58.040Z,2.77
2023-05-09T01:44:01.407Z,2.47
2023-05-09T01:46:05.619Z,2.20
2023-05-09T01:48:09.172Z,2.70
2023-05-09T01:50:13.300Z,2.83
2023-05-09T01:52:17.983Z,2.60
2023-05-09T01:54:20.755Z,2.47
2023-05-09T01:56:23.710Z,2.80
2023-05-09T01:58:26.821Z,2.50
2023-05-09T02:00:29.620Z,2.10
2023-05-09T02:02:33.763Z,2.33
2023-05-09T02:04:37.190Z,2.40
2023-05-09T02:06:40.048Z,2.43
2023-05-09T02:08:43.080Z,2.53
2023-05-09T02:10:45.864Z,2.47
2023-05-09T02:12:48.725Z,2.80
2023-05-09T02:14:51.510Z,2.37
2023-05-09T02:16:54.626Z,2.30
2023-05-09T02:18:58.996Z,2.67
2023-05-09T02:21:01.989Z,2.70
2023-05-09T02:23:04.735Z,2.40
2023-05-09T02:25:08.360Z,2.47
2023-05-09T02:27:11.483Z,2.40
2023-05-09T02:29:16.148Z,2.20
2023-05-09T02:31:20.183Z,2.30
2023-05-09T02:33:23.020Z,2.60
2023-05-09T02:35:27.630Z,2.30
2023-05-09T02:37:30.498Z,2.37
2023-05-09T02:39:33.325Z,2.63
2023-05-09T02:41:36.130Z,2.10
2023-05-09T02:43:39.959Z,2.20
2023-05-09T02:45:43.863Z,2.20
2023-05-09T02:47:46.791Z,2.37
2023-05-09T02:49:49.994Z,2.30
2023-05-09T02:51:54.015Z,2.50
2023-05-09T02:53:57.602Z,2.13
2023-05-09T02:56:00.688Z,2.30
2023-05-09T02:58:13.648Z,2.00
2023-05-09T03:00:18.638Z,2.43
2023-05-09T03:02:21.494Z,2.30
2023-05-09T03:04:25.665Z,2.40
2023-05-09T03:06:28.917Z,2.33
2023-05-09T03:08:32.956Z,2.40
2023-05-09T03:10:35.761Z,2.43
2023-05-09T03:12:39.049Z,2.40
2023-05-09T03:14:42.258Z,2.00
2023-05-09T03:16:45.040Z,2.47
2023-05-09T03:18:47.806Z,2.27
2023-05-09T03:20:50.536Z,1.97
2023-05-09T03:22:57.189Z,2.47
2023-05-09T03:25:01.360Z,2.30
2023-05-09T03:27:04.187Z,1.83
2023-05-09T03:29:07.468Z,2.70
2023-05-09T03:31:10.261Z,2.53
2023-05-09T03:33:12.985Z,2.23
2023-05-09T03:35:16.005Z,2.27
2023-05-09T03:37:19.558Z,2.67
2023-05-09T03:39:22.302Z,2.80
2023-05-09T03:41:26.786Z,2.43
2023-05-09T03:43:29.524Z,2.33
2023-05-09T03:45:32.703Z,2.60
2023-05-09T03:47:35.667Z,2.40
2023-05-09T03:49:38.485Z,2.27
2023-05-09T03:51:42.229Z,2.03
2023-05-09T03:53:47.979Z,2.93
2023-05-09T03:55:50.810Z,2.20
2023-05-09T03:57:54.850Z,2.23
2023-05-09T03:59:57.645Z,2.60
2023-05-09T04:02:01.079Z,2.20
2023-05-09T04:04:03.891Z,2.30
2023-05-09T04:06:06.905Z,2.40
2023-05-09T04:08:09.655Z,2.70
2023-05-09T04:10:12.927Z,2.10
2023-05-09T04:12:15.708Z,2.50
2023-05-09T04:14:19.766Z,2.60
2023-05-09T04:16:22.564Z,2.77
2023-05-09T04:18:25.772Z,2.30
2023-05-09T04:20:28.804Z,2.20
2023-05-09T04:22:31.586Z,2.20
2023-05-09T04:24:34.386Z,2.13
2023-05-09T04:26:39.001Z,2.33
2023-05-09T04:28:41.820Z,2.13
2023-05-09T04:30:45.926Z,2.30
2023-05-09T04:32:49.114Z,2.10
2023-05-09T04:34:52.388Z,2.00
2023-05-09T04:36:55.690Z,2.60
2023-05-09T04:38:58.482Z,2.30
2023-05-09T04:41:01.371Z,1.97
2023-05-09T04:43:04.856Z,2.00
2023-05-09T04:45:08.398Z,2.33
2023-05-09T04:47:12.476Z,2.10
2023-05-09T04:49:15.666Z,2.23
2023-05-09T04:51:19.050Z,2.13
2023-05-09T04:53:21.796Z,2.13
2023-05-09T04:55:24.571Z,2.40
2023-05-09T04:57:27.348Z,2.30
2023-05-09T04:59:30.445Z,2.50
2023-05-09T05:01:33.283Z,2.10
2023-05-09T05:03:37.363Z,2.13
2023-05-09T05:05:40.690Z,2.10
2023-05-09T05:07:43.868Z,2.20
2023-05-09T05:09:49.301Z,2.10
2023-05-09T05:12:00.729Z,2.50
2023-05-09T05:14:04.863Z,2.30
2023-05-09T05:16:07.995Z,2.07
2023-05-09T05:18:10.760Z,2.20
2023-05-09T05:20:15.607Z,2.30
2023-05-09T05:22:18.407Z,1.93
2023-05-09T05:24:21.734Z,2.30
2023-05-09T05:26:25.979Z,2.27
2023-05-09T05:28:28.722Z,2.50
2023-05-09T05:30:34.004Z,2.30
2023-05-09T05:32:37.820Z,1.90
2023-05-09T05:34:40.662Z,2.60
2023-05-09T05:36:44.713Z,2.27
2023-05-09T05:38:47.462Z,2.07
2023-05-09T05:40:51.936Z,2.27
2023-05-09T05:42:55.158Z,1.97
2023-05-09T05:44:58.066Z,2.50
2023-05-09T05:47:01.381Z,2.67
2023-05-09T05:49:07.234Z,2.40
2023-05-09T05:51:10.018Z,2.70
2023-05-09T05:53:14.041Z,2.57
2023-05-09T05:55:17.583Z,2.23
2023-05-09T05:57:21.162Z,2.43
2023-05-09T05:59:23.994Z,2.57
2023-05-09T06:01:26.768Z,2.00
2023-05-09T06:03:31.298Z,2.43
2023-05-09T06:05:34.895Z,2.40
2023-05-09T06:07:39.507Z,2.33
2023-05-09T06:09:43.921Z,3.13
2023-05-09T06:11:48.255Z,2.50
2023-05-09T06:13:52.945Z,2.77
2023-05-09T06:16:02.051Z,2.70
2023-05-09T06:18:14.275Z,2.57
2023-05-09T06:20:17.131Z,2.20
2023-05-09T06:22:20.478Z,2.60
2023-05-09T06:24:34.596Z,2.50
2023-05-09T06:26:40.165Z,2.50
2023-05-09T06:28:42.940Z,2.63
2023-05-09T06:30:46.121Z,2.83
2023-05-09T06:32:48.935Z,2.60
2023-05-09T06:34:52.660Z,2.53
2023-05-09T06:36:55.839Z,2.17
2023-05-09T06:38:58.605Z,2.43
2023-05-09T06:41:01.383Z,2.50
2023-05-09T06:43:07.705Z,2.30
2023-05-09T06:45:11.193Z,2.57
2023-05-09T06:47:14.021Z,2.50
2023-05-09T06:49:17.172Z,2.80
2023-05-09T06:51:24.016Z,2.40
2023-05-09T06:53:30.414Z,2.43
2023-05-09T06:55:36.739Z,2.27
2023-05-09T06:57:39.713Z,2.50
2023-05-09T06:59:44.857Z,2.90
2023-05-09T07:01:47.662Z,2.53
2023-05-09T07:03:50.847Z,2.80
2023-05-09T07:05:56.905Z,2.10
2023-05-09T07:08:00.067Z,2.47
2023-05-09T07:10:11.141Z,2.73
2023-05-09T07:12:15.202Z,2.73
2023-05-09T07:14:17.945Z,2.23
2023-05-09T07:16:23.140Z,2.57
2023-05-09T07:18:26.702Z,2.40
2023-05-09T07:20:29.546Z,2.60
2023-05-09T07:22:34.175Z,3.03
2023-05-09T07:24:38.700Z,2.20
2023-05-09T07:26:41.480Z,2.60
2023-05-09T07:28:44.229Z,2.50
2023-05-09T07:30:47.005Z,3.00
2023-05-09T07:32:52.933Z,2.70
2023-05-09T07:34:55.724Z,2.47
2023-05-09T07:36:58.908Z,2.87
2023-05-09T07:39:01.732Z,2.83
2023-05-09T07:41:04.809Z,2.70
2023-05-09T07:43:07.571Z,2.70
2023-05-09T07:45:11.052Z,2.60
2023-05-09T07:47:14.286Z,2.87
2023-05-09T07:49:18.306Z,3.30
2023-05-09T07:51:21.768Z,3.17
2023-05-09T07:53:26.834Z,2.77
2023-05-09T07:55:29.601Z,3.03
2023-05-09T07:57:32.444Z,2.50
2023-05-09T07:59:35.260Z,3.03
2023-05-09T08:01:38.353Z,3.03
2023-05-09T08:03:41.699Z,2.70
2023-05-09T08:05:45.799Z,3.13
2023-05-09T08:07:48.852Z,2.70
2023-05-09T08:09:51.619Z,2.70
2023-05-09T08:11:54.393Z,2.97
2023-05-09T08:13:57.152Z,2.97
2023-05-09T08:16:00.952Z,2.77
2023-05-09T08:18:03.827Z,2.47
2023-05-09T08:20:08.386Z,3.30
2023-05-09T08:22:17.682Z,2.57
2023-05-09T08:24:20.526Z,3.03
2023-05-09T08:26:23.751Z,3.23
2023-05-09T08:28:28.740Z,2.70
2023-05-09T08:30:31.599Z,2.67
2023-05-09T08:32:34.444Z,2.87
2023-05-09T08:34:37.703Z,2.97
2023-05-09T08:36:41.215Z,2.73
2023-05-09T08:38:45.825Z,2.97
2023-05-09T08:40:48.948Z,3.10
2023-05-09T08:42:52.085Z,2.80
2023-05-09T08:44:54.885Z,3.00
2023-05-09T08:46:59.647Z,3.23
2023-05-09T08:49:02.813Z,3.60
2023-05-09T08:51:06.128Z,3.30
2023-05-09T08:53:09.042Z,3.27
2023-05-09T08:55:16.519Z,3.20
2023-05-09T08:57:21.627Z,3.00
2023-05-09T08:59:27.594Z,2.93
2023-05-09T09:01:30.861Z,3.20
2023-05-09T09:03:33.848Z,3.17
2023-05-09T09:05:41.928Z,2.80
2023-05-09T09:07:45.290Z,3.03
2023-05-09T09:09:48.822Z,3.10
2023-05-09T09:11:53.354Z,2.93
2023-05-09T09:13:56.537Z,3.73
2023-05-09T09:15:59.362Z,3.50
2023-05-09T09:18:06.741Z,3.30
2023-05-09T09:20:11.323Z,3.60
2023-05-09T09:22:15.776Z,3.40
2023-05-09T09:24:21.241Z,3.60
2023-05-09T09:26:24.999Z,3.37
2023-05-09T09:35:55.566Z,3.67
2023-05-09T09:38:01.040Z,3.63
2023-05-09T09:40:04.328Z,3.50
2023-05-09T09:42:12.161Z,3.90
2023-05-09T09:44:15.840Z,3.90
2023-05-09T09:46:19.428Z,3.70
2023-05-09T09:48:25.394Z,4.03
2023-05-09T09:50:28.705Z,3.57
2023-05-09T09:52:31.850Z,3.63
2023-05-09T09:54:35.931Z,3.67
2023-05-09T09:56:41.184Z,3.17
2023-05-09T09:58:43.921Z,3.67
2023-05-09T10:00:47.054Z,4.20
2023-05-09T10:02:51.046Z,3.77
2023-05-09T10:04:54.916Z,3.40
2023-05-09T10:06:59.262Z,3.90
2023-05-09T10:09:02.016Z,3.33
2023-05-09T10:11:07.351Z,3.60
2023-05-09T10:13:12.037Z,3.57
2023-05-09T10:15:15.587Z,3.33
2023-05-09T10:17:18.421Z,3.37
2023-05-09T10:19:24.579Z,3.60
2023-05-09T10:21:27.353Z,3.37
2023-05-09T10:23:30.493Z,3.33
2023-05-09T10:25:38.001Z,4.13
2023-05-09T10:27:42.962Z,3.70
2023-05-09T10:29:52.499Z,3.97
2023-05-09T10:31:55.983Z,3.60
2023-05-09T10:33:58.830Z,3.60
2023-05-09T10:36:01.656Z,3.83
2023-05-09T10:38:15.318Z,3.53
2023-05-09T10:40:19.870Z,3.60
2023-05-09T10:42:25.302Z,3.63
2023-05-09T10:44:30.110Z,4.00
2023-05-09T10:46:33.064Z,4.03
2023-05-09T10:48:36.216Z,3.83
2023-05-09T10:50:40.462Z,3.80
2023-05-09T10:53:07.306Z,3.70
2023-05-09T10:55:11.418Z,3.70
2023-05-09T10:57:16.773Z,3.67
2023-05-09T10:59:48.174Z,3.30
2023-05-09T11:01:51.036Z,3.63
2023-05-09T11:03:55.909Z,3.77
2023-05-09T11:06:03.112Z,3.63
2023-05-09T11:08:18.994Z,3.90
2023-05-09T11:10:22.301Z,3.57
2023-05-09T11:12:24.930Z,3.67
2023-05-09T11:14:30.278Z,3.50
2023-05-09T11:16:35.955Z,3.20
2023-05-09T11:18:51.903Z,3.57
2023-05-09T11:20:54.736Z,3.70
2023-05-09T11:22:57.631Z,3.43
2023-05-09T11:25:05.769Z,3.90
2023-05-09T11:27:20.251Z,3.47
2023-05-09T11:29:23.667Z,3.60
2023-05-09T11:31:26.847Z,3.73
2023-05-09T11:33:31.122Z,3.40
2023-05-09T11:35:34.355Z,3.07
2023-05-09T11:37:45.420Z,3.40
2023-05-09T11:39:59.629Z,3.43
2023-05-09T11:42:03.875Z,3.73
2023-05-09T11:44:13.904Z,3.87
2023-05-09T11:46:17.018Z,3.60
2023-05-09T11:48:22.621Z,3.43
2023-05-09T11:50:26.757Z,3.67
2023-05-09T11:52:33.301Z,3.27
2023-05-09T11:54:38.372Z,3.33
2023-05-09T11:56:41.970Z,3.47
2023-05-09T11:58:46.847Z,3.40
2023-05-09T12:00:49.624Z,3.70
2023-05-09T12:02:53.126Z,3.23
2023-05-09T12:04:57.603Z,4.10
2023-05-09T12:07:02.335Z,3.43
2023-05-09T12:09:05.514Z,3.70
2023-05-09T12:11:12.597Z,3.43
2023-05-09T12:13:16.359Z,3.63
2023-05-09T12:15:19.791Z,3.70
2023-05-09T12:17:25.185Z,3.50
2023-05-09T12:19:28.897Z,3.60
2023-05-09T12:21:33.419Z,3.30
2023-05-09T12:23:40.088Z,3.37
2023-05-09T12:25:48.990Z,3.67
2023-05-09T12:27:54.606Z,3.60
2023-05-09T12:29:57.722Z,3.60
2023-05-09T12:32:01.175Z,3.20
2023-05-09T12:34:03.985Z,3.23
2023-05-09T12:36:09.668Z,3.33
2023-05-09T12:38:15.789Z,3.90
2023-05-09T12:40:20.300Z,3.37
2023-05-09T12:42:23.301Z,3.67
2023-05-09T12:44:28.231Z,3.63
2023-05-09T12:46:31.568Z,3.50
2023-05-09T12:48:37.850Z,3.60
2023-05-09T12:50:40.684Z,3.57
2023-05-09T12:52:54.575Z,3.90
2023-05-09T12:55:07.022Z,3.80
2023-05-09T12:57:22.794Z,3.57
2023-05-09T12:59:26.895Z,3.40
2023-05-09T13:01:30.518Z,3.67
2023-05-09T13:03:38.032Z,3.90
2023-05-09T13:05:43.400Z,3.90
2023-05-09T13:07:47.415Z,3.10
2023-05-09T13:09:57.987Z,3.47
2023-05-09T13:12:04.042Z,3.63
2023-05-09T13:14:08.548Z,3.57
2023-05-09T13:16:13.283Z,3.47
2023-05-09T13:18:17.841Z,3.43
2023-05-09T13:20:22.340Z,3.30
2023-05-09T13:22:26.321Z,3.27
2023-05-09T13:24:29.460Z,3.47
2023-05-09T13:26:32.414Z,3.20
2023-05-09T13:28:36.097Z,3.13
2023-05-09T13:30:41.473Z,4.00
2023-05-09T13:32:46.198Z,3.33
2023-05-09T13:34:49.715Z,3.67
2023-05-09T13:36:54.972Z,3.17
2023-05-09T13:38:58.587Z,3.20
2023-05-09T13:41:09.150Z,4.03
2023-05-09T13:43:21.179Z,3.33
2023-05-09T13:45:24.445Z,3.53
2023-05-09T13:47:28.891Z,3.20
2023-05-09T13:49:32.519Z,4.03
2023-05-09T13:51:35.271Z,3.63
2023-05-09T13:53:39.440Z,3.20
2023-05-09T13:55:42.914Z,3.00
2023-05-09T13:57:45.806Z,3.33
2023-05-09T13:59:49.040Z,3.37
2023-05-09T14:01:51.801Z,3.50
2023-05-09T14:03:56.147Z,3.40
2023-05-09T14:05:59.641Z,3.43
2023-05-09T14:08:03.535Z,3.30
2023-05-09T14:10:11.891Z,3.27
2023-05-09T14:12:16.382Z,3.10
2023-05-09T14:14:19.284Z,3.00
2023-05-09T14:16:22.328Z,3.43
2023-05-09T14:18:25.080Z,3.10
2023-05-09T14:20:29.607Z,3.27
2023-05-09T14:22:32.353Z,3.20
2023-05-09T14:24:36.090Z,3.53
2023-05-09T14:26:39.048Z,3.40
2023-05-09T14:28:41.883Z,3.20
2023-05-09T14:30:44.624Z,2.90
2023-05-09T14:32:47.575Z,3.40
2023-05-09T14:34:50.403Z,2.77
2023-05-09T14:36:54.462Z,2.77
2023-05-09T14:38:57.256Z,2.90
2023-05-09T14:41:03.518Z,3.00
2023-05-09T14:43:06.713Z,3.03
2023-05-09T14:45:18.539Z,3.20
2023-05-09T14:47:22.211Z,3.10
2023-05-09T14:49:25.013Z,2.60
2023-05-09T14:51:28.903Z,3.10
2023-05-09T14:53:35.484Z,2.73
2023-05-09T14:55:38.407Z,2.80
2023-05-09T14:57:41.422Z,2.83
2023-05-09T14:59:44.586Z,2.80
2023-05-09T15:01:47.575Z,2.97
2023-05-09T15:03:50.421Z,2.73
2023-05-09T15:05:53.600Z,3.13
2023-05-09T15:07:56.425Z,2.90
2023-05-09T15:10:01.444Z,2.60
2023-05-09T15:12:04.784Z,2.50
2023-05-09T15:14:07.536Z,2.57
2023-05-09T15:16:10.288Z,2.30
2023-05-09T15:18:18.393Z,2.70
2023-05-09T15:20:21.371Z,2.70
2023-05-09T15:22:24.219Z,2.60
2023-05-09T15:24:27.816Z,2.47
2023-05-09T15:26:32.378Z,2.70
2023-05-09T15:28:35.432Z,2.37
2023-05-09T15:30:41.098Z,2.60
2023-05-09T15:32:44.182Z,2.80
2023-05-09T15:34:47.010Z,2.20
2023-05-09T15:36:49.774Z,2.63
2023-05-09T15:38:53.850Z,2.70
2023-05-09T15:40:56.913Z,2.40
2023-05-09T15:43:07.376Z,2.37
2023-05-09T15:45:11.913Z,2.27
2023-05-09T15:47:14.738Z,2.73
2023-05-09T15:49:18.374Z,2.50
2023-05-09T15:51:21.788Z,2.83
2023-05-09T15:53:24.613Z,2.27
2023-05-09T15:55:28.807Z,2.63
2023-05-09T15:57:31.977Z,2.70
2023-05-09T15:59:36.136Z,2.20
2023-05-09T16:01:39.111Z,2.23
2023-05-09T16:03:43.152Z,2.37
2023-05-09T16:05:46.042Z,2.30
2023-05-09T16:07:50.176Z,1.60
2023-05-09T16:09:52.964Z,2.30
2023-05-09T16:11:57.052Z,2.13
2023-05-09T16:14:00.169Z,2.13
2023-05-09T16:16:04.922Z,2.03
2023-05-09T16:18:08.494Z,2.10
2023-05-09T16:20:13.860Z,2.20
2023-05-09T16:22:16.764Z,1.70
2023-05-09T16:24:20.884Z,2.17
2023-05-09T16:26:23.828Z,2.37
2023-05-09T16:28:28.347Z,2.10
2023-05-09T16:30:31.743Z,2.33
2023-05-09T16:32:36.490Z,2.40
2023-05-09T16:34:39.612Z,2.40
2023-05-09T16:36:44.109Z,2.27
2023-05-09T16:38:47.416Z,2.00
2023-05-09T16:40:51.014Z,2.37
2023-05-09T16:42:54.820Z,2.40
2023-05-09T16:44:58.573Z,2.37
2023-05-09T16:47:02.053Z,2.40
2023-05-09T16:49:06.146Z,1.93
2023-05-09T16:51:08.946Z,2.50
2023-05-09T16:53:11.720Z,2.00
2023-05-09T16:55:14.784Z,1.93
2023-05-09T16:57:17.731Z,1.93
2023-05-09T16:59:20.836Z,2.40
2023-05-09T17:01:24.949Z,2.20
2023-05-09T17:03:28.651Z,2.00
2023-05-09T17:05:35.507Z,2.03
2023-05-09T17:07:38.816Z,2.30
2023-05-09T17:09:46.704Z,2.07
2023-05-09T17:11:50.119Z,1.87
2023-05-09T17:13:53.688Z,2.03
2023-05-09T17:15:57.454Z,1.97
2023-05-09T17:18:00.820Z,1.90
2023-05-09T17:20:04.852Z,2.03
2023-05-09T17:22:09.848Z,2.00
2023-05-09T17:24:15.839Z,1.80
2023-05-09T17:26:18.683Z,2.07
2023-05-09T17:28:25.657Z,1.90
2023-05-09T17:30:28.960Z,2.20
2023-05-09T17:32:33.372Z,1.83
2023-05-09T17:34:38.247Z,1.90
2023-05-09T17:36:43.761Z,2.23
2023-05-09T17:38:48.218Z,1.70
2023-05-09T17:40:52.141Z,1.80
2023-05-09T17:42:54.921Z,1.97
2023-05-09T17:44:58.410Z,1.60
2023-05-09T17:47:02.203Z,1.90
2023-05-09T17:49:11.324Z,1.80
2023-05-09T17:51:15.009Z,2.00
2023-05-09T17:53:18.487Z,1.97
2023-05-09T17:55:22.616Z,2.13
2023-05-09T17:57:26.190Z,1.70
2023-05-09T17:59:30.130Z,2.30
2023-05-09T18:01:33.360Z,1.93
2023-05-09T18:03:36.388Z,1.93
2023-05-09T18:05:40.109Z,1.70
2023-05-09T18:07:46.750Z,2.00
2023-05-09T18:09:51.390Z,1.90
2023-05-09T18:11:56.092Z,1.97
2023-05-09T18:13:59.102Z,1.57
2023-05-09T18:16:02.672Z,1.90
2023-05-09T18:18:06.527Z,1.80
2023-05-09T18:20:09.951Z,2.03
2023-05-09T18:22:13.972Z,1.70
2023-05-09T18:24:17.177Z,2.10
2023-05-09T18:26:20.421Z,1.80
2023-05-09T18:28:25.668Z,1.97
2023-05-09T18:30:28.536Z,1.80
2023-05-09T18:32:31.571Z,2.10
2023-05-09T18:34:34.380Z,1.93
2023-05-09T18:36:37.347Z,2.17
2023-05-09T18:38:41.016Z,1.97
2023-05-09T18:40:44.626Z,1.80
2023-05-09T18:42:47.437Z,2.17
2023-05-09T18:44:51.771Z,2.00
2023-05-09T18:46:58.074Z,1.90
2023-05-09T18:49:01.098Z,1.97
2023-05-09T18:51:04.392Z,2.10
2023-05-09T18:53:07.463Z,1.83
2023-05-09T18:55:10.683Z,1.70
2023-05-09T18:57:13.666Z,1.67
2023-05-09T18:59:17.327Z,2.20
2023-05-09T19:01:24.465Z,1.97
2023-05-09T19:03:27.791Z,1.90
2023-05-09T19:05:32.635Z,1.80
2023-05-09T19:07:35.552Z,1.87
2023-05-09T19:09:38.378Z,1.90
2023-05-09T19:11:41.361Z,2.07
2023-05-09T19:13:48.783Z,1.93
2023-05-09T19:15:51.989Z,1.93
2023-05-09T19:17:56.265Z,2.63
2023-05-09T19:19:59.375Z,2.00
2023-05-09T19:24:16.431Z,1.73
2023-05-09T19:26:19.620Z,2.03
2023-05-09T19:28:23.652Z,1.87
2023-05-09T19:30:26.966Z,1.73
2023-05-09T19:32:30.324Z,1.90
2023-05-09T19:34:34.441Z,2.00
2023-05-09T19:36:37.265Z,1.80
2023-05-09T19:38:40.636Z,1.83
2023-05-09T19:40:47.411Z,1.80
2023-05-09T19:42:50.269Z,1.70
2023-05-09T19:44:53.197Z,1.90
2023-05-09T19:46:58.458Z,1.97
2023-05-09T19:49:01.301Z,1.73
2023-05-09T19:51:09.201Z,2.00
2023-05-09T19:53:11.974Z,1.90
2023-05-09T19:55:18.096Z,2.03
2023-05-09T19:57:20.878Z,2.00
2023-05-09T19:59:30.200Z,1.77
2023-05-09T20:01:33.456Z,2.20
2023-05-09T20:03:36.979Z,1.93
2023-05-09T20:07:55.243Z,1.73
2023-05-09T20:09:58.315Z,1.63
2023-05-09T20:12:02.662Z,1.90
2023-05-09T20:14:05.833Z,2.23
2023-05-09T20:16:09.258Z,1.87
2023-05-09T20:18:12.036Z,2.03
2023-05-09T20:20:14.913Z,1.90
2023-05-09T20:22:17.956Z,1.50
2023-05-09T20:24:22.365Z,1.80
2023-05-09T20:26:25.421Z,2.10
2023-05-09T20:28:28.221Z,1.43
2023-05-09T20:30:31.031Z,1.73
2023-05-09T20:32:34.723Z,1.90
2023-05-09T20:34:37.821Z,2.03
2023-05-09T20:36:40.692Z,1.90
2023-05-09T20:38:43.537Z,2.07
2023-05-09T20:40:47.882Z,1.67
2023-05-09T20:42:51.160Z,1.70
2023-05-09T20:44:54.676Z,1.57
2023-05-09T20:46:57.400Z,2.00
2023-05-09T20:49:00.746Z,1.90
2023-05-09T20:51:03.585Z,1.70
2023-05-09T20:53:06.361Z,1.80
2023-05-09T20:55:10.111Z,1.60
2023-05-09T20:57:14.249Z,2.13
2023-05-09T20:59:17.872Z,2.30
2023-05-09T21:01:20.776Z,2.00
2023-05-09T21:03:24.365Z,1.77
2023-05-09T21:05:27.217Z,1.77
2023-05-09T21:07:30.000Z,2.13
2023-05-09T21:09:32.731Z,1.70
2023-05-09T21:11:36.941Z,1.73
2023-05-09T21:13:40.988Z,2.17
2023-05-09T21:15:43.734Z,1.77
2023-05-09T21:17:46.673Z,1.80
2023-05-09T21:19:51.561Z,1.90
2023-05-09T21:21:55.370Z,1.93
2023-05-09T21:23:58.139Z,1.60
2023-05-09T21:26:00.785Z,2.07
2023-05-09T21:28:03.901Z,2.00
2023-05-09T21:30:10.155Z,2.07
2023-05-09T21:32:12.608Z,2.00
2023-05-09T21:34:17.202Z,2.10
2023-05-09T21:36:22.401Z,2.03
2023-05-09T21:38:29.739Z,1.97
2023-05-09T21:40:32.984Z,2.00
2023-05-09T21:42:41.205Z,2.20
2023-05-09T21:44:46.247Z,2.10
2023-05-09T21:46:51.356Z,1.80
2023-05-09T21:48:54.153Z,1.73
2023-05-09T21:50:57.294Z,2.10
2023-05-09T21:53:00.509Z,1.83
2023-05-09T21:55:03.320Z,1.77
2023-05-09T21:57:07.310Z,2.20
2023-05-09T21:59:10.923Z,2.20
2023-05-09T22:01:16.566Z,2.20
2023-05-09T22:03:20.812Z,2.27
2023-05-09T22:05:24.301Z,1.93
2023-05-09T22:07:27.383Z,2.27
2023-05-09T22:09:30.327Z,2.10
2023-05-09T22:11:33.590Z,2.20
2023-05-09T22:13:37.081Z,2.00
2023-05-09T22:15:40.610Z,1.87
2023-05-09T22:17:43.354Z,1.90
2023-05-09T22:19:47.462Z,2.00
2023-05-09T22:21:50.210Z,1.80
2023-05-09T22:23:53.279Z,2.17
2023-05-09T22:25:56.040Z,1.93
2023-05-09T22:27:58.899Z,2.10
2023-05-09T22:30:02.828Z,1.90
2023-05-09T22:32:07.795Z,1.80
2023-05-09T22:34:11.016Z,1.80
2023-05-09T22:36:15.412Z,1.73
2023-05-09T22:38:18.183Z,2.30
2023-05-09T22:40:21.227Z,1.97
2023-05-09T22:42:23.969Z,2.23
2023-05-09T22:44:26.915Z,1.77
2023-05-09T22:46:30.564Z,2.13
2023-05-09T22:48:33.440Z,2.00
2023-05-09T22:50:36.305Z,2.20
2023-05-09T22:52:40.656Z,2.30
2023-05-09T22:54:43.850Z,2.30
2023-05-09T22:56:47.338Z,1.93
2023-05-09T22:58:50.603Z,1.87
2023-05-09T23:00:53.412Z,2.10
2023-05-09T23:02:56.831Z,2.40
2023-05-09T23:04:59.920Z,1.90
2023-05-09T23:07:02.649Z,2.00
2023-05-09T23:09:06.944Z,2.17
2023-05-09T23:11:09.734Z,1.97
2023-05-09T23:13:12.635Z,2.30
2023-05-09T23:15:15.693Z,1.87
2023-05-09T23:17:18.454Z,2.00
2023-05-09T23:19:21.663Z,1.93
2023-05-09T23:21:24.468Z,2.00
2023-05-09T23:23:27.324Z,2.17
2023-05-09T23:25:31.467Z,2.03
2023-05-09T23:27:34.528Z,2.00
2023-05-09T23:29:37.246Z,2.23
2023-05-09T23:31:40.702Z,2.03
2023-05-09T23:33:43.979Z,1.90
2023-05-09T23:35:48.679Z,2.07
2023-05-09T23:37:51.442Z,2.00
2023-05-09T23:39:54.180Z,2.17
2023-05-09T23:41:58.375Z,2.30
2023-05-09T23:44:03.297Z,2.07
2023-05-09T23:46:06.508Z,2.07
2023-05-09T23:48:09.325Z,2.27
2023-05-09T23:50:13.504Z,1.87
2023-05-09T23:52:16.426Z,2.20
2023-05-09T23:54:21.557Z,1.80
2023-05-09T23:56:25.286Z,2.10
2023-05-09T23:58:30.144Z,2.50
